sensor_id;sensor_type;location;lat;lon;timestamp;P1;durP1;ratioP1;P2;durP2;ratioP2
8861;SDS011;4799;50.996;4.754;2023-12-20T00:01:01;11.47;;;4.10;;
8861;SDS011;4799;50.996;4.754;2023-12-20T00:03:26;14.47;;;3.87;;
8861;SDS011;4799;50.996;4.754;2023-12-20T00:05:52;11.97;;;3.83;;
8861;SDS011;4799;50.996;4.754;2023-12-20T00:08:18;14.80;;;4.10;;
8861;SDS011;4799;50.996;4.754;2023-12-20T00:10:44;10.73;;;3.70;;
8861;SDS011;4799;50.996;4.754;2023-12-20T00:13:10;13.97;;;4.23;;
8861;SDS011;4799;50.996;4.754;2023-12-20T00:15:36;20.97;;;5.00;;
8861;SDS011;4799;50.996;4.754;2023-12-20T00:18:02;14.93;;;4.60;;
8861;SDS011;4799;50.996;4.754;2023-12-20T00:20:28;16.73;;;4.53;;
8861;SDS011;4799;50.996;4.754;2023-12-20T00:22:55;16.63;;;4.70;;
8861;SDS011;4799;50.996;4.754;2023-12-20T00:25:23;15.03;;;4.50;;
8861;SDS011;4799;50.996;4.754;2023-12-20T00:27:49;14.63;;;4.87;;
8861;SDS011;4799;50.996;4.754;2023-12-20T00:30:14;17.70;;;5.03;;
8861;SDS011;4799;50.996;4.754;2023-12-20T00:32:40;12.43;;;4.43;;
8861;SDS011;4799;50.996;4.754;2023-12-20T00:35:14;12.17;;;4.63;;
8861;SDS011;4799;50.996;4.754;2023-12-20T00:37:41;13.50;;;5.23;;
8861;SDS011;4799;50.996;4.754;2023-12-20T00:40:10;13.63;;;4.83;;
8861;SDS011;4799;50.996;4.754;2023-12-20T00:42:36;12.50;;;4.80;;
8861;SDS011;4799;50.996;4.754;2023-12-20T00:45:02;14.93;;;5.37;;
8861;SDS011;4799;50.996;4.754;2023-12-20T00:47:30;16.40;;;5.50;;
8861;SDS011;4799;50.996;4.754;2023-12-20T00:49:57;18.00;;;6.07;;
8861;SDS011;4799;50.996;4.754;2023-12-20T00:52:23;16.47;;;5.57;;
8861;SDS011;4799;50.996;4.754;2023-12-20T00:54:49;16.97;;;5.10;;
8861;SDS011;4799;50.996;4.754;2023-12-20T00:57:15;15.53;;;5.80;;
8861;SDS011;4799;50.996;4.754;2023-12-20T00:59:40;16.97;;;5.33;;
8861;SDS011;4799;50.996;4.754;2023-12-20T01:02:06;14.13;;;5.03;;
8861;SDS011;4799;50.996;4.754;2023-12-20T01:04:32;13.20;;;5.13;;
8861;SDS011;4799;50.996;4.754;2023-12-20T01:06:58;14.80;;;5.63;;
8861;SDS011;4799;50.996;4.754;2023-12-20T01:09:24;14.77;;;5.60;;
8861;SDS011;4799;50.996;4.754;2023-12-20T01:11:51;13.87;;;5.20;;
8861;SDS011;4799;50.996;4.754;2023-12-20T01:14:18;19.27;;;5.50;;
8861;SDS011;4799;50.996;4.754;2023-12-20T01:16:43;14.23;;;5.07;;
8861;SDS011;4799;50.996;4.754;2023-12-20T01:19:09;15.13;;;5.53;;
8861;SDS011;4799;50.996;4.754;2023-12-20T01:21:35;15.80;;;5.17;;
8861;SDS011;4799;50.996;4.754;2023-12-20T01:24:01;16.80;;;5.60;;
8861;SDS011;4799;50.996;4.754;2023-12-20T01:26:27;13.27;;;5.20;;
8861;SDS011;4799;50.996;4.754;2023-12-20T01:28:52;15.40;;;5.30;;
8861;SDS011;4799;50.996;4.754;2023-12-20T01:31:18;16.07;;;5.37;;
8861;SDS011;4799;50.996;4.754;2023-12-20T01:33:44;15.63;;;5.10;;
8861;SDS011;4799;50.996;4.754;2023-12-20T01:36:10;18.00;;;5.13;;
8861;SDS011;4799;50.996;4.754;2023-12-20T01:38:36;17.57;;;5.50;;
8861;SDS011;4799;50.996;4.754;2023-12-20T01:41:02;14.80;;;4.80;;
8861;SDS011;4799;50.996;4.754;2023-12-20T01:43:29;19.43;;;6.03;;
8861;SDS011;4799;50.996;4.754;2023-12-20T01:45:58;16.27;;;5.60;;
8861;SDS011;4799;50.996;4.754;2023-12-20T01:48:24;14.87;;;5.77;;
8861;SDS011;4799;50.996;4.754;2023-12-20T01:50:51;18.13;;;5.50;;
8861;SDS011;4799;50.996;4.754;2023-12-20T01:53:18;16.37;;;4.93;;
8861;SDS011;4799;50.996;4.754;2023-12-20T01:55:46;15.60;;;5.97;;
8861;SDS011;4799;50.996;4.754;2023-12-20T01:58:14;20.30;;;6.00;;
8861;SDS011;4799;50.996;4.754;2023-12-20T02:00:40;15.20;;;5.20;;
8861;SDS011;4799;50.996;4.754;2023-12-20T02:03:06;22.73;;;6.43;;
8861;SDS011;4799;50.996;4.754;2023-12-20T02:05:33;18.83;;;4.90;;
8861;SDS011;4799;50.996;4.754;2023-12-20T02:08:00;20.03;;;5.73;;
8861;SDS011;4799;50.996;4.754;2023-12-20T02:10:26;15.00;;;6.17;;
8861;SDS011;4799;50.996;4.754;2023-12-20T02:12:52;16.83;;;5.80;;
8861;SDS011;4799;50.996;4.754;2023-12-20T02:15:18;14.10;;;5.90;;
8861;SDS011;4799;50.996;4.754;2023-12-20T02:17:44;15.07;;;5.37;;
8861;SDS011;4799;50.996;4.754;2023-12-20T02:20:11;14.47;;;5.63;;
8861;SDS011;4799;50.996;4.754;2023-12-20T02:22:37;18.63;;;6.53;;
8861;SDS011;4799;50.996;4.754;2023-12-20T02:25:03;21.97;;;7.63;;
8861;SDS011;4799;50.996;4.754;2023-12-20T02:27:29;17.50;;;6.83;;
8861;SDS011;4799;50.996;4.754;2023-12-20T02:29:55;15.33;;;6.03;;
8861;SDS011;4799;50.996;4.754;2023-12-20T02:32:20;21.03;;;7.27;;
8861;SDS011;4799;50.996;4.754;2023-12-20T02:34:48;16.63;;;6.53;;
8861;SDS011;4799;50.996;4.754;2023-12-20T02:37:14;19.27;;;6.67;;
8861;SDS011;4799;50.996;4.754;2023-12-20T02:39:41;16.83;;;6.17;;
8861;SDS011;4799;50.996;4.754;2023-12-20T02:42:06;19.03;;;6.80;;
8861;SDS011;4799;50.996;4.754;2023-12-20T02:44:32;15.00;;;6.60;;
8861;SDS011;4799;50.996;4.754;2023-12-20T02:46:58;17.23;;;6.17;;
8861;SDS011;4799;50.996;4.754;2023-12-20T02:49:23;20.03;;;6.87;;
8861;SDS011;4799;50.996;4.754;2023-12-20T02:51:49;14.77;;;6.47;;
8861;SDS011;4799;50.996;4.754;2023-12-20T02:54:15;19.73;;;6.80;;
8861;SDS011;4799;50.996;4.754;2023-12-20T02:56:41;16.90;;;6.60;;
8861;SDS011;4799;50.996;4.754;2023-12-20T02:59:06;15.67;;;6.90;;
8861;SDS011;4799;50.996;4.754;2023-12-20T03:01:33;15.73;;;6.50;;
8861;SDS011;4799;50.996;4.754;2023-12-20T03:03:59;15.73;;;6.43;;
8861;SDS011;4799;50.996;4.754;2023-12-20T03:06:25;16.83;;;6.80;;
8861;SDS011;4799;50.996;4.754;2023-12-20T03:08:51;17.97;;;6.33;;
8861;SDS011;4799;50.996;4.754;2023-12-20T03:11:17;18.60;;;6.53;;
8861;SDS011;4799;50.996;4.754;2023-12-20T03:13:43;24.23;;;7.00;;
8861;SDS011;4799;50.996;4.754;2023-12-20T03:16:09;16.00;;;6.03;;
8861;SDS011;4799;50.996;4.754;2023-12-20T03:18:35;19.00;;;6.43;;
8861;SDS011;4799;50.996;4.754;2023-12-20T03:21:01;20.77;;;6.57;;
8861;SDS011;4799;50.996;4.754;2023-12-20T03:23:27;17.33;;;5.60;;
8861;SDS011;4799;50.996;4.754;2023-12-20T03:25:55;18.30;;;6.13;;
8861;SDS011;4799;50.996;4.754;2023-12-20T03:28:21;16.27;;;5.70;;
8861;SDS011;4799;50.996;4.754;2023-12-20T03:30:48;20.90;;;6.30;;
8861;SDS011;4799;50.996;4.754;2023-12-20T03:33:14;14.53;;;5.67;;
8861;SDS011;4799;50.996;4.754;2023-12-20T03:35:40;17.30;;;5.80;;
8861;SDS011;4799;50.996;4.754;2023-12-20T03:38:06;18.27;;;5.60;;
8861;SDS011;4799;50.996;4.754;2023-12-20T03:40:32;18.47;;;5.37;;
8861;SDS011;4799;50.996;4.754;2023-12-20T03:42:58;21.83;;;6.37;;
8861;SDS011;4799;50.996;4.754;2023-12-20T03:45:24;16.97;;;5.57;;
8861;SDS011;4799;50.996;4.754;2023-12-20T03:47:49;17.37;;;5.77;;
8861;SDS011;4799;50.996;4.754;2023-12-20T03:50:20;16.50;;;5.73;;
8861;SDS011;4799;50.996;4.754;2023-12-20T03:52:47;18.60;;;5.77;;
8861;SDS011;4799;50.996;4.754;2023-12-20T03:55:12;20.63;;;6.43;;
8861;SDS011;4799;50.996;4.754;2023-12-20T03:57:38;17.97;;;6.80;;
8861;SDS011;4799;50.996;4.754;2023-12-20T04:00:04;21.83;;;6.10;;
8861;SDS011;4799;50.996;4.754;2023-12-20T04:02:35;20.87;;;6.70;;
8861;SDS011;4799;50.996;4.754;2023-12-20T04:05:05;18.93;;;6.50;;
8861;SDS011;4799;50.996;4.754;2023-12-20T04:07:31;15.10;;;6.00;;
8861;SDS011;4799;50.996;4.754;2023-12-20T04:09:57;21.37;;;6.80;;
8861;SDS011;4799;50.996;4.754;2023-12-20T04:12:23;22.97;;;6.73;;
8861;SDS011;4799;50.996;4.754;2023-12-20T04:14:49;23.80;;;6.77;;
8861;SDS011;4799;50.996;4.754;2023-12-20T04:17:15;18.13;;;6.30;;
8861;SDS011;4799;50.996;4.754;2023-12-20T04:19:42;20.90;;;6.20;;
8861;SDS011;4799;50.996;4.754;2023-12-20T04:22:08;18.67;;;6.43;;
8861;SDS011;4799;50.996;4.754;2023-12-20T04:24:34;20.43;;;7.03;;
8861;SDS011;4799;50.996;4.754;2023-12-20T04:26:59;16.13;;;6.50;;
8861;SDS011;4799;50.996;4.754;2023-12-20T04:29:25;18.73;;;6.43;;
8861;SDS011;4799;50.996;4.754;2023-12-20T04:31:51;18.93;;;6.67;;
8861;SDS011;4799;50.996;4.754;2023-12-20T04:34:17;20.47;;;6.90;;
8861;SDS011;4799;50.996;4.754;2023-12-20T04:36:43;23.23;;;7.40;;
8861;SDS011;4799;50.996;4.754;2023-12-20T04:39:09;24.67;;;7.57;;
8861;SDS011;4799;50.996;4.754;2023-12-20T04:41:35;20.27;;;7.23;;
8861;SDS011;4799;50.996;4.754;2023-12-20T04:44:01;23.23;;;7.33;;
8861;SDS011;4799;50.996;4.754;2023-12-20T04:46:27;20.93;;;7.10;;
8861;SDS011;4799;50.996;4.754;2023-12-20T04:48:53;21.23;;;7.30;;
8861;SDS011;4799;50.996;4.754;2023-12-20T04:51:18;22.93;;;7.60;;
8861;SDS011;4799;50.996;4.754;2023-12-20T04:53:45;21.93;;;6.93;;
8861;SDS011;4799;50.996;4.754;2023-12-20T04:56:10;20.03;;;7.30;;
8861;SDS011;4799;50.996;4.754;2023-12-20T04:58:36;21.97;;;7.00;;
8861;SDS011;4799;50.996;4.754;2023-12-20T05:01:03;19.00;;;7.20;;
8861;SDS011;4799;50.996;4.754;2023-12-20T05:03:30;19.37;;;6.77;;
8861;SDS011;4799;50.996;4.754;2023-12-20T05:05:56;17.03;;;6.20;;
8861;SDS011;4799;50.996;4.754;2023-12-20T05:08:22;24.37;;;7.37;;
8861;SDS011;4799;50.996;4.754;2023-12-20T05:10:47;20.27;;;7.60;;
8861;SDS011;4799;50.996;4.754;2023-12-20T05:13:13;21.33;;;6.90;;
8861;SDS011;4799;50.996;4.754;2023-12-20T05:15:39;21.93;;;7.20;;
8861;SDS011;4799;50.996;4.754;2023-12-20T05:18:05;18.73;;;6.87;;
8861;SDS011;4799;50.996;4.754;2023-12-20T05:20:30;15.50;;;6.40;;
8861;SDS011;4799;50.996;4.754;2023-12-20T05:22:56;18.97;;;6.33;;
8861;SDS011;4799;50.996;4.754;2023-12-20T05:25:22;22.73;;;6.30;;
8861;SDS011;4799;50.996;4.754;2023-12-20T05:27:47;19.23;;;6.57;;
8861;SDS011;4799;50.996;4.754;2023-12-20T05:30:13;19.07;;;6.83;;
8861;SDS011;4799;50.996;4.754;2023-12-20T05:32:39;19.27;;;6.70;;
8861;SDS011;4799;50.996;4.754;2023-12-20T05:35:05;18.67;;;6.67;;
8861;SDS011;4799;50.996;4.754;2023-12-20T05:37:31;22.87;;;7.47;;
8861;SDS011;4799;50.996;4.754;2023-12-20T05:39:56;22.30;;;7.47;;
8861;SDS011;4799;50.996;4.754;2023-12-20T05:42:22;26.27;;;7.43;;
8861;SDS011;4799;50.996;4.754;2023-12-20T05:44:48;20.20;;;7.23;;
8861;SDS011;4799;50.996;4.754;2023-12-20T05:47:13;20.67;;;7.47;;
8861;SDS011;4799;50.996;4.754;2023-12-20T05:49:39;23.77;;;7.40;;
8861;SDS011;4799;50.996;4.754;2023-12-20T05:52:05;27.50;;;8.00;;
8861;SDS011;4799;50.996;4.754;2023-12-20T05:54:31;20.50;;;7.73;;
8861;SDS011;4799;50.996;4.754;2023-12-20T05:56:56;22.03;;;7.77;;
8861;SDS011;4799;50.996;4.754;2023-12-20T05:59:22;23.20;;;7.70;;
8861;SDS011;4799;50.996;4.754;2023-12-20T06:01:48;22.87;;;7.90;;
8861;SDS011;4799;50.996;4.754;2023-12-20T06:04:14;17.03;;;7.20;;
8861;SDS011;4799;50.996;4.754;2023-12-20T06:06:43;18.77;;;7.77;;
8861;SDS011;4799;50.996;4.754;2023-12-20T06:09:09;22.53;;;7.50;;
8861;SDS011;4799;50.996;4.754;2023-12-20T06:11:35;18.57;;;7.53;;
8861;SDS011;4799;50.996;4.754;2023-12-20T06:14:00;21.77;;;7.90;;
8861;SDS011;4799;50.996;4.754;2023-12-20T06:16:26;21.60;;;7.37;;
8861;SDS011;4799;50.996;4.754;2023-12-20T06:18:52;24.80;;;7.40;;
8861;SDS011;4799;50.996;4.754;2023-12-20T06:21:18;22.67;;;7.43;;
8861;SDS011;4799;50.996;4.754;2023-12-20T06:23:44;20.90;;;7.33;;
8861;SDS011;4799;50.996;4.754;2023-12-20T06:26:09;20.13;;;7.20;;
8861;SDS011;4799;50.996;4.754;2023-12-20T06:28:35;24.20;;;7.27;;
8861;SDS011;4799;50.996;4.754;2023-12-20T06:31:01;23.97;;;7.77;;
8861;SDS011;4799;50.996;4.754;2023-12-20T06:33:28;20.40;;;7.20;;
8861;SDS011;4799;50.996;4.754;2023-12-20T06:35:56;24.83;;;7.77;;
8861;SDS011;4799;50.996;4.754;2023-12-20T06:38:21;24.43;;;7.67;;
8861;SDS011;4799;50.996;4.754;2023-12-20T06:40:47;20.17;;;6.83;;
8861;SDS011;4799;50.996;4.754;2023-12-20T06:43:13;20.40;;;6.57;;
8861;SDS011;4799;50.996;4.754;2023-12-20T06:45:39;17.43;;;6.13;;
8861;SDS011;4799;50.996;4.754;2023-12-20T06:48:04;21.03;;;6.70;;
8861;SDS011;4799;50.996;4.754;2023-12-20T06:50:30;20.63;;;7.13;;
8861;SDS011;4799;50.996;4.754;2023-12-20T06:52:56;23.60;;;7.90;;
8861;SDS011;4799;50.996;4.754;2023-12-20T06:55:22;20.93;;;7.13;;
8861;SDS011;4799;50.996;4.754;2023-12-20T06:57:48;18.73;;;7.07;;
8861;SDS011;4799;50.996;4.754;2023-12-20T07:00:14;21.87;;;7.07;;
8861;SDS011;4799;50.996;4.754;2023-12-20T07:02:40;23.90;;;7.90;;
8861;SDS011;4799;50.996;4.754;2023-12-20T07:05:06;21.07;;;8.07;;
8861;SDS011;4799;50.996;4.754;2023-12-20T07:07:32;19.57;;;7.03;;
8861;SDS011;4799;50.996;4.754;2023-12-20T07:09:57;18.93;;;6.93;;
8861;SDS011;4799;50.996;4.754;2023-12-20T07:12:23;21.33;;;7.00;;
8861;SDS011;4799;50.996;4.754;2023-12-20T07:14:49;21.43;;;6.80;;
8861;SDS011;4799;50.996;4.754;2023-12-20T07:17:14;18.50;;;6.30;;
8861;SDS011;4799;50.996;4.754;2023-12-20T07:19:41;22.20;;;6.43;;
8861;SDS011;4799;50.996;4.754;2023-12-20T07:22:07;20.30;;;6.70;;
8861;SDS011;4799;50.996;4.754;2023-12-20T07:24:33;19.30;;;5.83;;
8861;SDS011;4799;50.996;4.754;2023-12-20T07:26:59;22.00;;;6.50;;
8861;SDS011;4799;50.996;4.754;2023-12-20T07:29:25;15.70;;;6.07;;
8861;SDS011;4799;50.996;4.754;2023-12-20T07:31:52;17.37;;;6.13;;
8861;SDS011;4799;50.996;4.754;2023-12-20T07:34:19;19.33;;;6.37;;
8861;SDS011;4799;50.996;4.754;2023-12-20T07:36:48;22.90;;;6.03;;
8861;SDS011;4799;50.996;4.754;2023-12-20T07:39:14;16.63;;;5.83;;
8861;SDS011;4799;50.996;4.754;2023-12-20T07:41:39;19.57;;;6.33;;
8861;SDS011;4799;50.996;4.754;2023-12-20T07:44:06;21.03;;;5.87;;
8861;SDS011;4799;50.996;4.754;2023-12-20T07:46:32;15.70;;;5.40;;
8861;SDS011;4799;50.996;4.754;2023-12-20T07:48:57;17.90;;;6.10;;
8861;SDS011;4799;50.996;4.754;2023-12-20T07:51:23;22.93;;;6.60;;
8861;SDS011;4799;50.996;4.754;2023-12-20T07:53:49;21.10;;;6.43;;
8861;SDS011;4799;50.996;4.754;2023-12-20T07:56:18;22.77;;;6.07;;
8861;SDS011;4799;50.996;4.754;2023-12-20T07:58:45;26.77;;;6.63;;
8861;SDS011;4799;50.996;4.754;2023-12-20T08:01:11;18.47;;;5.80;;
8861;SDS011;4799;50.996;4.754;2023-12-20T08:03:38;19.67;;;6.07;;
8861;SDS011;4799;50.996;4.754;2023-12-20T08:06:04;21.37;;;6.70;;
8861;SDS011;4799;50.996;4.754;2023-12-20T08:08:30;20.27;;;6.97;;
8861;SDS011;4799;50.996;4.754;2023-12-20T08:10:55;21.10;;;6.57;;
8861;SDS011;4799;50.996;4.754;2023-12-20T08:13:24;19.67;;;6.63;;
8861;SDS011;4799;50.996;4.754;2023-12-20T08:15:54;17.87;;;6.60;;
8861;SDS011;4799;50.996;4.754;2023-12-20T08:18:21;17.43;;;6.37;;
8861;SDS011;4799;50.996;4.754;2023-12-20T08:20:47;18.83;;;6.33;;
8861;SDS011;4799;50.996;4.754;2023-12-20T08:23:13;20.73;;;6.53;;
8861;SDS011;4799;50.996;4.754;2023-12-20T08:25:39;15.97;;;6.70;;
8861;SDS011;4799;50.996;4.754;2023-12-20T08:28:05;18.50;;;5.83;;
8861;SDS011;4799;50.996;4.754;2023-12-20T08:30:30;19.70;;;6.00;;
8861;SDS011;4799;50.996;4.754;2023-12-20T08:32:59;17.10;;;6.67;;
8861;SDS011;4799;50.996;4.754;2023-12-20T08:35:26;14.97;;;6.13;;
8861;SDS011;4799;50.996;4.754;2023-12-20T08:37:51;18.37;;;6.43;;
8861;SDS011;4799;50.996;4.754;2023-12-20T08:40:17;19.70;;;6.43;;
8861;SDS011;4799;50.996;4.754;2023-12-20T08:42:43;17.33;;;5.53;;
8861;SDS011;4799;50.996;4.754;2023-12-20T08:45:09;14.77;;;5.90;;
8861;SDS011;4799;50.996;4.754;2023-12-20T08:47:35;17.03;;;5.33;;
8861;SDS011;4799;50.996;4.754;2023-12-20T08:50:02;18.37;;;5.70;;
8861;SDS011;4799;50.996;4.754;2023-12-20T08:52:28;18.57;;;5.87;;
8861;SDS011;4799;50.996;4.754;2023-12-20T08:54:54;18.07;;;5.43;;
8861;SDS011;4799;50.996;4.754;2023-12-20T08:57:20;17.40;;;5.50;;
8861;SDS011;4799;50.996;4.754;2023-12-20T08:59:47;15.70;;;5.40;;
8861;SDS011;4799;50.996;4.754;2023-12-20T09:02:13;16.83;;;5.53;;
8861;SDS011;4799;50.996;4.754;2023-12-20T09:04:39;14.53;;;5.77;;
8861;SDS011;4799;50.996;4.754;2023-12-20T09:07:05;16.33;;;5.20;;
8861;SDS011;4799;50.996;4.754;2023-12-20T09:09:31;13.00;;;4.70;;
8861;SDS011;4799;50.996;4.754;2023-12-20T09:11:57;16.90;;;4.90;;
8861;SDS011;4799;50.996;4.754;2023-12-20T09:14:23;17.70;;;5.73;;
8861;SDS011;4799;50.996;4.754;2023-12-20T09:16:49;20.10;;;5.20;;
8861;SDS011;4799;50.996;4.754;2023-12-20T09:19:16;15.43;;;5.20;;
8861;SDS011;4799;50.996;4.754;2023-12-20T09:21:43;20.37;;;5.33;;
8861;SDS011;4799;50.996;4.754;2023-12-20T09:24:08;13.37;;;4.70;;
8861;SDS011;4799;50.996;4.754;2023-12-20T09:26:34;16.77;;;5.50;;
8861;SDS011;4799;50.996;4.754;2023-12-20T09:29:00;17.20;;;5.20;;
8861;SDS011;4799;50.996;4.754;2023-12-20T09:31:26;18.23;;;5.20;;
8861;SDS011;4799;50.996;4.754;2023-12-20T09:33:52;14.17;;;4.87;;
8861;SDS011;4799;50.996;4.754;2023-12-20T09:36:17;18.87;;;5.00;;
8861;SDS011;4799;50.996;4.754;2023-12-20T09:38:43;15.20;;;4.83;;
8861;SDS011;4799;50.996;4.754;2023-12-20T09:41:09;13.80;;;5.10;;
8861;SDS011;4799;50.996;4.754;2023-12-20T09:43:37;17.13;;;5.40;;
8861;SDS011;4799;50.996;4.754;2023-12-20T09:46:05;14.63;;;5.13;;
8861;SDS011;4799;50.996;4.754;2023-12-20T09:48:35;21.40;;;5.90;;
8861;SDS011;4799;50.996;4.754;2023-12-20T09:51:02;15.10;;;5.13;;
8861;SDS011;4799;50.996;4.754;2023-12-20T09:53:28;15.37;;;4.80;;
8861;SDS011;4799;50.996;4.754;2023-12-20T09:55:58;17.07;;;5.03;;
8861;SDS011;4799;50.996;4.754;2023-12-20T09:58:25;16.87;;;5.03;;
8861;SDS011;4799;50.996;4.754;2023-12-20T10:00:51;17.13;;;4.97;;
8861;SDS011;4799;50.996;4.754;2023-12-20T10:03:19;14.03;;;4.90;;
8861;SDS011;4799;50.996;4.754;2023-12-20T10:05:52;15.17;;;4.50;;
8861;SDS011;4799;50.996;4.754;2023-12-20T10:08:21;14.27;;;4.80;;
8861;SDS011;4799;50.996;4.754;2023-12-20T10:10:47;13.07;;;4.33;;
8861;SDS011;4799;50.996;4.754;2023-12-20T10:13:14;12.13;;;4.37;;
8861;SDS011;4799;50.996;4.754;2023-12-20T10:15:40;13.23;;;4.30;;
8861;SDS011;4799;50.996;4.754;2023-12-20T10:18:06;13.53;;;4.27;;
8861;SDS011;4799;50.996;4.754;2023-12-20T10:20:32;12.83;;;4.00;;
8861;SDS011;4799;50.996;4.754;2023-12-20T10:22:59;15.93;;;4.97;;
8861;SDS011;4799;50.996;4.754;2023-12-20T10:25:25;13.83;;;3.80;;
8861;SDS011;4799;50.996;4.754;2023-12-20T10:28:08;15.93;;;4.43;;
8861;SDS011;4799;50.996;4.754;2023-12-20T10:30:36;13.80;;;4.47;;
8861;SDS011;4799;50.996;4.754;2023-12-20T10:33:02;12.67;;;4.23;;
8861;SDS011;4799;50.996;4.754;2023-12-20T10:35:27;13.77;;;4.07;;
8861;SDS011;4799;50.996;4.754;2023-12-20T10:37:55;12.00;;;4.43;;
8861;SDS011;4799;50.996;4.754;2023-12-20T10:40:21;17.87;;;4.77;;
8861;SDS011;4799;50.996;4.754;2023-12-20T10:42:48;12.23;;;4.40;;
8861;SDS011;4799;50.996;4.754;2023-12-20T10:45:15;13.37;;;4.40;;
8861;SDS011;4799;50.996;4.754;2023-12-20T10:47:43;17.20;;;4.83;;
8861;SDS011;4799;50.996;4.754;2023-12-20T10:50:11;11.30;;;3.93;;
8861;SDS011;4799;50.996;4.754;2023-12-20T10:52:37;13.17;;;3.80;;
8861;SDS011;4799;50.996;4.754;2023-12-20T10:55:04;12.77;;;4.13;;
8861;SDS011;4799;50.996;4.754;2023-12-20T10:57:30;10.47;;;4.20;;
8861;SDS011;4799;50.996;4.754;2023-12-20T10:59:56;12.40;;;4.40;;
8861;SDS011;4799;50.996;4.754;2023-12-20T11:02:26;13.10;;;3.80;;
8861;SDS011;4799;50.996;4.754;2023-12-20T11:04:59;11.97;;;3.73;;
8861;SDS011;4799;50.996;4.754;2023-12-20T11:07:36;15.03;;;4.23;;
8861;SDS011;4799;50.996;4.754;2023-12-20T11:10:13;10.07;;;3.97;;
8861;SDS011;4799;50.996;4.754;2023-12-20T11:13:06;9.70;;;4.23;;
8861;SDS011;4799;50.996;4.754;2023-12-20T11:15:45;12.10;;;4.43;;
8861;SDS011;4799;50.996;4.754;2023-12-20T11:18:11;11.00;;;3.80;;
8861;SDS011;4799;50.996;4.754;2023-12-20T11:20:38;11.90;;;4.20;;
8861;SDS011;4799;50.996;4.754;2023-12-20T11:23:05;15.23;;;4.17;;
8861;SDS011;4799;50.996;4.754;2023-12-20T11:25:47;13.13;;;4.10;;
8861;SDS011;4799;50.996;4.754;2023-12-20T11:28:14;12.60;;;4.40;;
8861;SDS011;4799;50.996;4.754;2023-12-20T11:30:50;15.20;;;4.53;;
8861;SDS011;4799;50.996;4.754;2023-12-20T11:33:27;15.77;;;4.40;;
8861;SDS011;4799;50.996;4.754;2023-12-20T11:35:56;11.73;;;3.93;;
8861;SDS011;4799;50.996;4.754;2023-12-20T11:38:22;12.00;;;4.10;;
8861;SDS011;4799;50.996;4.754;2023-12-20T11:40:49;11.57;;;3.83;;
8861;SDS011;4799;50.996;4.754;2023-12-20T11:43:31;11.57;;;4.23;;
8861;SDS011;4799;50.996;4.754;2023-12-20T11:46:04;14.83;;;4.00;;
8861;SDS011;4799;50.996;4.754;2023-12-20T11:48:31;15.13;;;4.20;;
8861;SDS011;4799;50.996;4.754;2023-12-20T11:50:58;15.40;;;4.43;;
8861;SDS011;4799;50.996;4.754;2023-12-20T11:53:24;14.30;;;4.07;;
8861;SDS011;4799;50.996;4.754;2023-12-20T11:55:50;13.47;;;4.30;;
8861;SDS011;4799;50.996;4.754;2023-12-20T11:58:16;15.83;;;4.37;;
8861;SDS011;4799;50.996;4.754;2023-12-20T12:00:42;17.10;;;4.60;;
8861;SDS011;4799;50.996;4.754;2023-12-20T12:03:09;13.50;;;4.10;;
8861;SDS011;4799;50.996;4.754;2023-12-20T12:05:34;13.97;;;4.33;;
8861;SDS011;4799;50.996;4.754;2023-12-20T12:08:01;14.77;;;4.50;;
8861;SDS011;4799;50.996;4.754;2023-12-20T12:10:28;18.37;;;5.27;;
8861;SDS011;4799;50.996;4.754;2023-12-20T12:12:54;10.37;;;4.67;;
8861;SDS011;4799;50.996;4.754;2023-12-20T12:15:20;11.87;;;4.83;;
8861;SDS011;4799;50.996;4.754;2023-12-20T12:17:56;13.90;;;4.47;;
8861;SDS011;4799;50.996;4.754;2023-12-20T12:20:22;12.50;;;4.10;;
8861;SDS011;4799;50.996;4.754;2023-12-20T12:25:24;9.50;;;3.70;;
8861;SDS011;4799;50.996;4.754;2023-12-20T12:27:50;16.20;;;4.97;;
8861;SDS011;4799;50.996;4.754;2023-12-20T12:30:16;14.43;;;4.37;;
8861;SDS011;4799;50.996;4.754;2023-12-20T12:32:43;10.80;;;4.20;;
8861;SDS011;4799;50.996;4.754;2023-12-20T12:35:10;15.70;;;4.50;;
8861;SDS011;4799;50.996;4.754;2023-12-20T12:37:39;16.37;;;4.40;;
8861;SDS011;4799;50.996;4.754;2023-12-20T12:40:06;13.73;;;3.83;;
8861;SDS011;4799;50.996;4.754;2023-12-20T12:42:36;11.80;;;3.80;;
8861;SDS011;4799;50.996;4.754;2023-12-20T12:45:06;11.43;;;4.10;;
8861;SDS011;4799;50.996;4.754;2023-12-20T12:47:32;13.03;;;3.70;;
8861;SDS011;4799;50.996;4.754;2023-12-20T12:49:59;12.43;;;4.23;;
8861;SDS011;4799;50.996;4.754;2023-12-20T12:52:25;12.13;;;3.80;;
8861;SDS011;4799;50.996;4.754;2023-12-20T12:54:51;10.33;;;3.67;;
8861;SDS011;4799;50.996;4.754;2023-12-20T12:57:18;13.80;;;3.50;;
8861;SDS011;4799;50.996;4.754;2023-12-20T12:59:44;8.90;;;3.70;;
8861;SDS011;4799;50.996;4.754;2023-12-20T13:02:13;10.43;;;3.60;;
8861;SDS011;4799;50.996;4.754;2023-12-20T13:04:39;11.60;;;4.00;;
8861;SDS011;4799;50.996;4.754;2023-12-20T13:07:06;9.87;;;3.30;;
8861;SDS011;4799;50.996;4.754;2023-12-20T13:09:32;10.53;;;3.37;;
8861;SDS011;4799;50.996;4.754;2023-12-20T13:11:58;11.63;;;3.50;;
8861;SDS011;4799;50.996;4.754;2023-12-20T13:14:24;10.23;;;3.60;;
8861;SDS011;4799;50.996;4.754;2023-12-20T13:16:50;12.40;;;3.83;;
8861;SDS011;4799;50.996;4.754;2023-12-20T13:19:16;10.67;;;4.13;;
8861;SDS011;4799;50.996;4.754;2023-12-20T13:21:42;11.23;;;3.90;;
8861;SDS011;4799;50.996;4.754;2023-12-20T13:24:07;13.40;;;4.33;;
8861;SDS011;4799;50.996;4.754;2023-12-20T13:26:33;10.07;;;4.10;;
8861;SDS011;4799;50.996;4.754;2023-12-20T13:28:59;10.13;;;3.87;;
8861;SDS011;4799;50.996;4.754;2023-12-20T13:31:24;10.03;;;3.90;;
8861;SDS011;4799;50.996;4.754;2023-12-20T13:33:50;12.57;;;3.73;;
8861;SDS011;4799;50.996;4.754;2023-12-20T13:36:17;11.60;;;4.17;;
8861;SDS011;4799;50.996;4.754;2023-12-20T13:38:43;8.73;;;3.67;;
8861;SDS011;4799;50.996;4.754;2023-12-20T13:41:09;8.17;;;3.83;;
8861;SDS011;4799;50.996;4.754;2023-12-20T13:43:35;10.53;;;3.80;;
8861;SDS011;4799;50.996;4.754;2023-12-20T13:46:01;10.70;;;4.30;;
8861;SDS011;4799;50.996;4.754;2023-12-20T13:48:27;11.70;;;4.53;;
8861;SDS011;4799;50.996;4.754;2023-12-20T13:50:52;12.63;;;3.90;;
8861;SDS011;4799;50.996;4.754;2023-12-20T13:53:19;13.17;;;4.50;;
8861;SDS011;4799;50.996;4.754;2023-12-20T13:55:45;12.47;;;4.03;;
8861;SDS011;4799;50.996;4.754;2023-12-20T13:58:11;11.50;;;3.80;;
8861;SDS011;4799;50.996;4.754;2023-12-20T14:00:37;12.40;;;3.90;;
8861;SDS011;4799;50.996;4.754;2023-12-20T14:03:03;12.47;;;4.00;;
8861;SDS011;4799;50.996;4.754;2023-12-20T14:05:30;12.70;;;3.70;;
8861;SDS011;4799;50.996;4.754;2023-12-20T14:07:57;8.73;;;3.97;;
8861;SDS011;4799;50.996;4.754;2023-12-20T14:10:23;12.40;;;4.20;;
8861;SDS011;4799;50.996;4.754;2023-12-20T14:12:51;10.50;;;3.63;;
8861;SDS011;4799;50.996;4.754;2023-12-20T14:15:18;10.47;;;3.87;;
8861;SDS011;4799;50.996;4.754;2023-12-20T14:17:44;11.57;;;3.97;;
8861;SDS011;4799;50.996;4.754;2023-12-20T14:20:10;15.47;;;4.00;;
8861;SDS011;4799;50.996;4.754;2023-12-20T14:22:39;10.87;;;3.47;;
8861;SDS011;4799;50.996;4.754;2023-12-20T14:25:10;12.07;;;3.67;;
8861;SDS011;4799;50.996;4.754;2023-12-20T14:27:37;13.97;;;3.97;;
8861;SDS011;4799;50.996;4.754;2023-12-20T14:30:04;11.73;;;4.10;;
8861;SDS011;4799;50.996;4.754;2023-12-20T14:32:31;11.07;;;3.60;;
8861;SDS011;4799;50.996;4.754;2023-12-20T14:34:56;10.87;;;3.73;;
8861;SDS011;4799;50.996;4.754;2023-12-20T14:37:23;11.00;;;3.30;;
8861;SDS011;4799;50.996;4.754;2023-12-20T14:39:48;12.63;;;3.67;;
8861;SDS011;4799;50.996;4.754;2023-12-20T14:42:14;10.73;;;3.73;;
8861;SDS011;4799;50.996;4.754;2023-12-20T14:44:40;11.23;;;3.63;;
8861;SDS011;4799;50.996;4.754;2023-12-20T14:47:06;9.13;;;3.50;;
8861;SDS011;4799;50.996;4.754;2023-12-20T14:49:32;10.90;;;3.50;;
8861;SDS011;4799;50.996;4.754;2023-12-20T14:51:57;12.33;;;3.90;;
8861;SDS011;4799;50.996;4.754;2023-12-20T14:54:24;9.00;;;3.30;;
8861;SDS011;4799;50.996;4.754;2023-12-20T14:56:50;9.20;;;3.50;;
8861;SDS011;4799;50.996;4.754;2023-12-20T14:59:15;10.47;;;3.30;;
8861;SDS011;4799;50.996;4.754;2023-12-20T15:01:41;11.50;;;3.53;;